createdAt,value
2022-11-30T00:19:13.050Z,57.1
2022-11-30T00:39:13.029Z,57.1
2022-11-30T00:59:13.101Z,57.1
2022-11-30T01:19:12.994Z,57.1
2022-11-30T01:39:12.950Z,57.1
2022-11-30T01:59:12.941Z,57.1
2022-11-30T02:19:12.942Z,57.2
2022-11-30T02:39:12.878Z,57.2
2022-11-30T02:59:12.883Z,57.2
2022-11-30T03:19:12.866Z,57.3
2022-11-30T03:39:12.845Z,57.3
2022-11-30T03:59:12.843Z,57.3
2022-11-30T04:19:12.799Z,57.4
2022-11-30T04:39:12.770Z,57.0
2022-11-30T04:59:12.710Z,57.0
2022-11-30T05:19:12.685Z,56.9
2022-11-30T05:59:12.665Z,56.5
2022-11-30T06:19:12.619Z,56.4
2022-11-30T06:39:12.685Z,56.3
2022-11-30T06:59:12.599Z,56.3
2022-11-30T07:19:12.611Z,56.2
2022-11-30T07:39:12.570Z,56.4
2022-11-30T07:59:12.533Z,56.4
2022-11-30T08:39:12.685Z,56.4
2022-11-30T08:59:12.605Z,56.3
2022-11-30T09:19:12.390Z,56.1
2022-11-30T09:39:12.534Z,56.3
2022-11-30T09:59:12.603Z,56.3
2022-11-30T10:19:12.588Z,56.4
2022-11-30T10:39:12.312Z,56.3
2022-11-30T10:59:12.468Z,56.3
2022-11-30T11:19:12.335Z,56.3
2022-11-30T11:39:12.376Z,56.3
2022-11-30T11:59:12.312Z,56.3
2022-11-30T12:19:12.200Z,55.8
2022-11-30T12:39:12.234Z,54.1
2022-11-30T12:59:12.146Z,54.4
2022-11-30T13:19:12.123Z,55.4
2022-11-30T13:39:12.093Z,55.7
2022-11-30T13:59:12.064Z,56.0
2022-11-30T14:19:12.031Z,56.0
2022-11-30T14:39:12.104Z,56.1
2022-11-30T14:59:11.995Z,56.2
2022-11-30T15:19:11.991Z,56.2
2022-11-30T15:39:11.952Z,56.4
2022-11-30T16:39:11.963Z,55.8
2022-11-30T16:59:11.833Z,55.9
2022-11-30T17:19:11.813Z,55.9
2022-11-30T17:39:11.769Z,55.9
2022-11-30T17:59:11.871Z,55.9
2022-11-30T18:19:11.786Z,55.8
2022-11-30T18:39:11.725Z,55.4
2022-11-30T18:59:11.674Z,55.2
2022-11-30T19:19:11.663Z,55.4
2022-11-30T19:39:11.731Z,55.5
2022-11-30T19:59:11.692Z,55.3
2022-11-30T20:19:11.616Z,55.2
2022-11-30T20:39:11.730Z,55.0
2022-11-30T20:59:11.522Z,55.0
2022-11-30T21:19:11.521Z,54.7
2022-11-30T21:39:11.496Z,54.7
2022-11-30T21:59:11.533Z,54.8
2022-11-30T22:19:11.498Z,54.8
2022-11-30T22:39:11.432Z,54.9
2022-11-30T22:59:11.432Z,54.9
2022-11-30T23:19:11.437Z,54.9
2022-11-30T23:39:11.393Z,54.9
2022-11-30T23:59:11.407Z,54.9
